sensor_id;sensor_type;location;lat;lon;timestamp;pressure;altitude;pressure_sealevel;temperature;humidity
77603;BME280;66771;52.434;17.056;2023-02-28T00:01:25;102207.73;;;-3.94;77.37
77603;BME280;66771;52.434;17.056;2023-02-28T00:03:52;102207.01;;;-3.97;77.45
77603;BME280;66771;52.434;17.056;2023-02-28T00:06:20;102210.30;;;-4.02;77.48
77603;BME280;66771;52.434;17.056;2023-02-28T00:08:47;102212.71;;;-4.09;77.42
77603;BME280;66771;52.434;17.056;2023-02-28T00:11:15;102214.38;;;-4.20;77.33
77603;BME280;66771;52.434;17.056;2023-02-28T00:13:44;102213.44;;;-4.25;77.50
77603;BME280;66771;52.434;17.056;2023-02-28T00:16:18;102213.23;;;-4.31;77.62
77603;BME280;66771;52.434;17.056;2023-02-28T00:18:45;102209.12;;;-4.38;77.60
77603;BME280;66771;52.434;17.056;2023-02-28T00:21:15;102209.42;;;-4.44;77.58
77603;BME280;66771;52.434;17.056;2023-02-28T00:23:42;102207.63;;;-4.47;77.61
77603;BME280;66771;52.434;17.056;2023-02-28T00:26:09;102212.52;;;-4.50;77.63
77603;BME280;66771;52.434;17.056;2023-02-28T00:28:37;102213.92;;;-4.50;77.81
77603;BME280;66771;52.434;17.056;2023-02-28T00:31:04;102213.92;;;-4.51;77.78
77603;BME280;66771;52.434;17.056;2023-02-28T00:33:31;102214.07;;;-4.52;77.92
77603;BME280;66771;52.434;17.056;2023-02-28T00:36:16;102211.08;;;-4.53;78.06
77603;BME280;66771;52.434;17.056;2023-02-28T00:38:43;102208.55;;;-4.60;78.03
77603;BME280;66771;52.434;17.056;2023-02-28T00:41:09;102209.07;;;-4.62;78.20
77603;BME280;66771;52.434;17.056;2023-02-28T00:43:38;102210.96;;;-4.65;78.26
77603;BME280;66771;52.434;17.056;2023-02-28T00:46:05;102214.44;;;-4.67;78.30
77603;BME280;66771;52.434;17.056;2023-02-28T00:48:32;102213.55;;;-4.68;78.26
77603;BME280;66771;52.434;17.056;2023-02-28T00:50:59;102214.95;;;-4.69;78.14
77603;BME280;66771;52.434;17.056;2023-02-28T00:53:27;102211.05;;;-4.73;78.12
77603;BME280;66771;52.434;17.056;2023-02-28T00:55:54;102213.48;;;-4.75;78.26
77603;BME280;66771;52.434;17.056;2023-02-28T00:58:21;102216.27;;;-4.78;78.43
77603;BME280;66771;52.434;17.056;2023-02-28T01:00:48;102213.40;;;-4.83;78.47
77603;BME280;66771;52.434;17.056;2023-02-28T01:03:16;102213.35;;;-4.87;78.51
77603;BME280;66771;52.434;17.056;2023-02-28T01:05:43;102211.17;;;-4.93;78.59
77603;BME280;66771;52.434;17.056;2023-02-28T01:08:10;102216.55;;;-4.98;78.66
77603;BME280;66771;52.434;17.056;2023-02-28T01:10:37;102217.02;;;-5.04;78.55
77603;BME280;66771;52.434;17.056;2023-02-28T01:13:05;102217.66;;;-5.08;78.62
77603;BME280;66771;52.434;17.056;2023-02-28T01:15:32;102217.64;;;-5.09;78.58
77603;BME280;66771;52.434;17.056;2023-02-28T01:17:59;102216.93;;;-5.11;78.66
77603;BME280;66771;52.434;17.056;2023-02-28T01:20:26;102211.35;;;-5.09;78.59
77603;BME280;66771;52.434;17.056;2023-02-28T01:22:52;102209.58;;;-5.10;78.59
77603;BME280;66771;52.434;17.056;2023-02-28T01:25:19;102212.02;;;-5.10;78.51
77603;BME280;66771;52.434;17.056;2023-02-28T01:27:46;102210.40;;;-5.13;78.55
77603;BME280;66771;52.434;17.056;2023-02-28T01:30:12;102211.08;;;-5.17;78.51
77603;BME280;66771;52.434;17.056;2023-02-28T01:32:39;102210.50;;;-5.21;78.63
77603;BME280;66771;52.434;17.056;2023-02-28T01:35:06;102204.14;;;-5.24;78.75
77603;BME280;66771;52.434;17.056;2023-02-28T01:37:33;102202.63;;;-5.32;78.65
77603;BME280;66771;52.434;17.056;2023-02-28T01:40:00;102207.41;;;-5.41;78.44
77603;BME280;66771;52.434;17.056;2023-02-28T01:42:27;102209.67;;;-5.44;78.50
77603;BME280;66771;52.434;17.056;2023-02-28T01:47:35;102202.84;;;-5.42;78.66
77603;BME280;66771;52.434;17.056;2023-02-28T01:50:07;102200.90;;;-5.43;78.75
77603;BME280;66771;52.434;17.056;2023-02-28T01:52:34;102197.71;;;-5.46;78.83
77603;BME280;66771;52.434;17.056;2023-02-28T01:55:02;102204.20;;;-5.44;78.98
77603;BME280;66771;52.434;17.056;2023-02-28T01:57:35;102203.86;;;-5.44;79.12
77603;BME280;66771;52.434;17.056;2023-02-28T02:00:15;102204.38;;;-5.45;79.18
77603;BME280;66771;52.434;17.056;2023-02-28T02:02:49;102202.92;;;-5.49;79.02
77603;BME280;66771;52.434;17.056;2023-02-28T02:05:21;102196.30;;;-5.59;78.88
77603;BME280;66771;52.434;17.056;2023-02-28T02:07:51;102198.37;;;-5.62;78.94
77603;BME280;66771;52.434;17.056;2023-02-28T02:10:21;102198.02;;;-5.62;78.91
77603;BME280;66771;52.434;17.056;2023-02-28T02:16:04;102201.80;;;-5.66;78.88
77603;BME280;66771;52.434;17.056;2023-02-28T02:34:32;102198.94;;;-5.83;79.22
77603;BME280;66771;52.434;17.056;2023-02-28T02:38:08;102202.70;;;-5.89;79.08
77603;BME280;66771;52.434;17.056;2023-02-28T02:40:17;102202.95;;;-5.98;79.16
77603;BME280;66771;52.434;17.056;2023-02-28T02:42:50;102203.40;;;-6.02;79.01
77603;BME280;66771;52.434;17.056;2023-02-28T02:45:19;102200.38;;;-6.06;78.95
77603;BME280;66771;52.434;17.056;2023-02-28T02:47:50;102199.14;;;-6.07;78.93
77603;BME280;66771;52.434;17.056;2023-02-28T02:50:24;102197.38;;;-6.06;78.98
77603;BME280;66771;52.434;17.056;2023-02-28T02:52:56;102195.47;;;-6.05;79.00
77603;BME280;66771;52.434;17.056;2023-02-28T02:55:25;102191.42;;;-6.07;79.15
77603;BME280;66771;52.434;17.056;2023-02-28T02:57:58;102194.58;;;-6.07;79.16
77603;BME280;66771;52.434;17.056;2023-02-28T03:00:31;102189.95;;;-6.11;79.13
77603;BME280;66771;52.434;17.056;2023-02-28T03:03:01;102190.98;;;-6.12;79.15
77603;BME280;66771;52.434;17.056;2023-02-28T03:05:49;102192.88;;;-6.14;79.22
77603;BME280;66771;52.434;17.056;2023-02-28T03:08:16;102189.50;;;-6.17;79.28
77603;BME280;66771;52.434;17.056;2023-02-28T03:10:46;102188.94;;;-6.20;79.29
77603;BME280;66771;52.434;17.056;2023-02-28T03:21:43;102195.27;;;-6.19;79.11
77603;BME280;66771;52.434;17.056;2023-02-28T03:32:32;102192.48;;;-6.17;79.22
77603;BME280;66771;52.434;17.056;2023-02-28T03:35:05;102196.67;;;-6.18;79.24
77603;BME280;66771;52.434;17.056;2023-02-28T03:37:35;102197.50;;;-6.21;79.26
77603;BME280;66771;52.434;17.056;2023-02-28T03:40:16;102197.96;;;-6.24;79.25
77603;BME280;66771;52.434;17.056;2023-02-28T03:42:46;102199.30;;;-6.28;79.21
77603;BME280;66771;52.434;17.056;2023-02-28T03:45:18;102199.27;;;-6.29;79.24
77603;BME280;66771;52.434;17.056;2023-02-28T03:50:42;102195.73;;;-6.33;79.03
77603;BME280;66771;52.434;17.056;2023-02-28T03:53:19;102200.29;;;-6.32;79.13
77603;BME280;66771;52.434;17.056;2023-02-28T03:56:16;102203.48;;;-6.29;79.19
77603;BME280;66771;52.434;17.056;2023-02-28T03:59:12;102200.50;;;-6.30;79.16
77603;BME280;66771;52.434;17.056;2023-02-28T04:01:44;102205.58;;;-6.31;79.19
77603;BME280;66771;52.434;17.056;2023-02-28T04:04:12;102206.05;;;-6.33;79.16
77603;BME280;66771;52.434;17.056;2023-02-28T04:06:41;102207.23;;;-6.35;79.13
77603;BME280;66771;52.434;17.056;2023-02-28T04:09:10;102208.38;;;-6.40;79.18
77603;BME280;66771;52.434;17.056;2023-02-28T04:11:39;102203.21;;;-6.46;79.03
77603;BME280;66771;52.434;17.056;2023-02-28T04:14:08;102208.02;;;-6.51;79.05
77603;BME280;66771;52.434;17.056;2023-02-28T04:16:37;102214.09;;;-6.54;79.11
77603;BME280;66771;52.434;17.056;2023-02-28T04:19:05;102215.83;;;-6.55;79.15
77603;BME280;66771;52.434;17.056;2023-02-28T04:21:45;102217.73;;;-6.56;79.10
77603;BME280;66771;52.434;17.056;2023-02-28T04:24:17;102221.98;;;-6.54;79.10
77603;BME280;66771;52.434;17.056;2023-02-28T04:26:47;102219.41;;;-6.50;79.29
77603;BME280;66771;52.434;17.056;2023-02-28T04:29:23;102219.83;;;-6.46;79.35
77603;BME280;66771;52.434;17.056;2023-02-28T04:31:50;102222.88;;;-6.42;79.40
77603;BME280;66771;52.434;17.056;2023-02-28T04:34:17;102219.39;;;-6.42;79.45
77603;BME280;66771;52.434;17.056;2023-02-28T04:36:45;102220.96;;;-6.42;79.43
77603;BME280;66771;52.434;17.056;2023-02-28T04:39:24;102223.94;;;-6.42;79.52
77603;BME280;66771;52.434;17.056;2023-02-28T04:41:51;102225.16;;;-6.43;79.57
77603;BME280;66771;52.434;17.056;2023-02-28T04:44:18;102230.73;;;-6.44;79.48
77603;BME280;66771;52.434;17.056;2023-02-28T04:46:44;102233.10;;;-6.49;79.45
77603;BME280;66771;52.434;17.056;2023-02-28T04:49:11;102237.42;;;-6.52;79.47
77603;BME280;66771;52.434;17.056;2023-02-28T04:51:39;102240.73;;;-6.52;79.18
77603;BME280;66771;52.434;17.056;2023-02-28T04:54:07;102240.71;;;-6.54;79.15
77603;BME280;66771;52.434;17.056;2023-02-28T04:56:34;102238.25;;;-6.55;79.03
77603;BME280;66771;52.434;17.056;2023-02-28T04:59:00;102237.01;;;-6.55;79.11
77603;BME280;66771;52.434;17.056;2023-02-28T05:01:29;102237.58;;;-6.53;79.06
77603;BME280;66771;52.434;17.056;2023-02-28T05:03:58;102234.94;;;-6.53;79.10
77603;BME280;66771;52.434;17.056;2023-02-28T05:06:27;102237.73;;;-6.54;79.20
77603;BME280;66771;52.434;17.056;2023-02-28T05:08:54;102239.44;;;-6.56;79.18
77603;BME280;66771;52.434;17.056;2023-02-28T05:11:24;102243.95;;;-6.58;79.15
77603;BME280;66771;52.434;17.056;2023-02-28T05:13:52;102248.92;;;-6.64;79.13
77603;BME280;66771;52.434;17.056;2023-02-28T05:16:20;102251.80;;;-6.69;79.01
77603;BME280;66771;52.434;17.056;2023-02-28T05:18:47;102256.61;;;-6.73;79.03
77603;BME280;66771;52.434;17.056;2023-02-28T05:23:51;102254.06;;;-6.88;79.10
77603;BME280;66771;52.434;17.056;2023-02-28T05:26:19;102254.20;;;-6.89;78.84
77603;BME280;66771;52.434;17.056;2023-02-28T05:28:46;102263.86;;;-6.87;78.92
77603;BME280;66771;52.434;17.056;2023-02-28T05:31:13;102260.55;;;-6.87;78.81
77603;BME280;66771;52.434;17.056;2023-02-28T05:33:40;102259.50;;;-6.87;79.01
77603;BME280;66771;52.434;17.056;2023-02-28T05:36:07;102260.39;;;-6.86;79.08
77603;BME280;66771;52.434;17.056;2023-02-28T05:38:34;102259.64;;;-6.89;79.06
77603;BME280;66771;52.434;17.056;2023-02-28T05:41:07;102262.92;;;-6.91;79.14
77603;BME280;66771;52.434;17.056;2023-02-28T05:43:34;102268.67;;;-6.92;79.34
77603;BME280;66771;52.434;17.056;2023-02-28T05:46:03;102269.89;;;-6.92;79.51
77603;BME280;66771;52.434;17.056;2023-02-28T05:48:31;102269.02;;;-6.93;79.66
77603;BME280;66771;52.434;17.056;2023-02-28T05:50:58;102271.79;;;-6.94;79.69
77603;BME280;66771;52.434;17.056;2023-02-28T05:53:24;102274.23;;;-6.94;79.72
77603;BME280;66771;52.434;17.056;2023-02-28T05:55:52;102274.10;;;-6.93;79.63
77603;BME280;66771;52.434;17.056;2023-02-28T05:58:21;102276.27;;;-6.88;79.62
77603;BME280;66771;52.434;17.056;2023-02-28T06:00:48;102275.33;;;-6.84;79.66
77603;BME280;66771;52.434;17.056;2023-02-28T06:03:15;102278.77;;;-6.77;79.67
77603;BME280;66771;52.434;17.056;2023-02-28T06:05:42;102279.96;;;-6.70;79.68
77603;BME280;66771;52.434;17.056;2023-02-28T06:08:09;102275.79;;;-6.69;79.78
77603;BME280;66771;52.434;17.056;2023-02-28T06:10:36;102277.30;;;-6.63;79.85
77603;BME280;66771;52.434;17.056;2023-02-28T06:13:04;102281.02;;;-6.60;79.93
77603;BME280;66771;52.434;17.056;2023-02-28T06:15:31;102283.52;;;-6.59;79.89
77603;BME280;66771;52.434;17.056;2023-02-28T06:17:58;102288.16;;;-6.54;80.02
77603;BME280;66771;52.434;17.056;2023-02-28T06:20:26;102285.91;;;-6.52;80.00
77603;BME280;66771;52.434;17.056;2023-02-28T06:22:56;102286.16;;;-6.48;80.22
77603;BME280;66771;52.434;17.056;2023-02-28T06:25:27;102288.92;;;-6.41;80.03
77603;BME280;66771;52.434;17.056;2023-02-28T06:27:54;102288.55;;;-6.33;80.09
77603;BME280;66771;52.434;17.056;2023-02-28T06:30:22;102288.37;;;-6.23;80.22
77603;BME280;66771;52.434;17.056;2023-02-28T06:32:54;102291.73;;;-6.12;80.26
77603;BME280;66771;52.434;17.056;2023-02-28T06:35:21;102291.17;;;-6.04;80.22
77603;BME280;66771;52.434;17.056;2023-02-28T06:37:48;102293.05;;;-5.96;80.28
77603;BME280;66771;52.434;17.056;2023-02-28T06:40:15;102295.63;;;-5.87;80.44
77603;BME280;66771;52.434;17.056;2023-02-28T06:42:42;102296.67;;;-5.77;80.50
77603;BME280;66771;52.434;17.056;2023-02-28T06:45:10;102297.88;;;-5.67;80.62
77603;BME280;66771;52.434;17.056;2023-02-28T06:47:38;102295.52;;;-5.61;80.51
77603;BME280;66771;52.434;17.056;2023-02-28T06:50:09;102295.60;;;-5.56;80.63
77603;BME280;66771;52.434;17.056;2023-02-28T06:52:36;102293.64;;;-5.46;80.65
77603;BME280;66771;52.434;17.056;2023-02-28T06:55:07;102294.17;;;-5.35;80.81
77603;BME280;66771;52.434;17.056;2023-02-28T06:57:35;102293.09;;;-5.24;80.69
77603;BME280;66771;52.434;17.056;2023-02-28T07:00:07;102292.01;;;-5.13;80.75
77603;BME280;66771;52.434;17.056;2023-02-28T07:02:36;102291.13;;;-5.00;81.00
77603;BME280;66771;52.434;17.056;2023-02-28T07:05:07;102291.81;;;-4.88;81.15
77603;BME280;66771;52.434;17.056;2023-02-28T07:07:34;102288.11;;;-4.75;81.32
77603;BME280;66771;52.434;17.056;2023-02-28T07:10:03;102293.17;;;-4.63;81.46
77603;BME280;66771;52.434;17.056;2023-02-28T07:12:30;102289.23;;;-4.53;81.58
77603;BME280;66771;52.434;17.056;2023-02-28T07:14:56;102288.84;;;-4.41;81.67
77603;BME280;66771;52.434;17.056;2023-02-28T07:17:23;102289.66;;;-4.30;81.76
77603;BME280;66771;52.434;17.056;2023-02-28T07:19:50;102292.13;;;-4.13;81.78
77603;BME280;66771;52.434;17.056;2023-02-28T07:22:17;102285.13;;;-3.91;81.85
77603;BME280;66771;52.434;17.056;2023-02-28T07:24:44;102287.61;;;-3.66;81.99
77603;BME280;66771;52.434;17.056;2023-02-28T07:27:11;102286.15;;;-3.48;82.05
77603;BME280;66771;52.434;17.056;2023-02-28T07:29:38;102291.70;;;-3.34;81.98
77603;BME280;66771;52.434;17.056;2023-02-28T07:32:04;102295.13;;;-3.21;81.83
77603;BME280;66771;52.434;17.056;2023-02-28T07:34:31;102296.98;;;-3.07;81.85
77603;BME280;66771;52.434;17.056;2023-02-28T07:36:58;102295.79;;;-2.97;81.76
77603;BME280;66771;52.434;17.056;2023-02-28T07:39:25;102299.35;;;-2.87;81.59
77603;BME280;66771;52.434;17.056;2023-02-28T07:41:51;102302.58;;;-2.76;81.76
77603;BME280;66771;52.434;17.056;2023-02-28T07:44:18;102306.16;;;-2.63;81.59
77603;BME280;66771;52.434;17.056;2023-02-28T07:46:45;102301.62;;;-2.48;81.65
77603;BME280;66771;52.434;17.056;2023-02-28T07:49:12;102302.02;;;-2.34;81.50
77603;BME280;66771;52.434;17.056;2023-02-28T07:51:38;102296.05;;;-2.22;81.12
77603;BME280;66771;52.434;17.056;2023-02-28T07:54:05;102302.23;;;-2.11;81.21
77603;BME280;66771;52.434;17.056;2023-02-28T07:56:32;102299.79;;;-2.01;81.16
77603;BME280;66771;52.434;17.056;2023-02-28T07:58:59;102302.09;;;-1.95;80.99
77603;BME280;66771;52.434;17.056;2023-02-28T08:01:25;102305.09;;;-1.86;80.75
77603;BME280;66771;52.434;17.056;2023-02-28T08:03:52;102306.16;;;-1.76;80.61
77603;BME280;66771;52.434;17.056;2023-02-28T08:06:23;102310.02;;;-1.66;80.58
77603;BME280;66771;52.434;17.056;2023-02-28T08:08:50;102310.03;;;-1.52;80.33
77603;BME280;66771;52.434;17.056;2023-02-28T08:11:18;102306.48;;;-1.39;79.75
77603;BME280;66771;52.434;17.056;2023-02-28T08:13:45;102308.58;;;-1.25;80.12
77603;BME280;66771;52.434;17.056;2023-02-28T08:16:13;102305.71;;;-1.08;80.26
77603;BME280;66771;52.434;17.056;2023-02-28T08:18:49;102305.80;;;-0.79;80.12
77603;BME280;66771;52.434;17.056;2023-02-28T08:21:17;102304.00;;;-0.33;80.71
77603;BME280;66771;52.434;17.056;2023-02-28T08:23:47;102298.92;;;0.11;80.21
77603;BME280;66771;52.434;17.056;2023-02-28T08:26:16;102301.15;;;0.44;80.07
77603;BME280;66771;52.434;17.056;2023-02-28T08:28:43;102303.77;;;0.48;79.24
77603;BME280;66771;52.434;17.056;2023-02-28T08:31:12;102303.52;;;0.55;78.86
77603;BME280;66771;52.434;17.056;2023-02-28T08:33:40;102299.77;;;0.95;77.46
77603;BME280;66771;52.434;17.056;2023-02-28T08:36:08;102296.83;;;1.46;78.44
77603;BME280;66771;52.434;17.056;2023-02-28T08:38:36;102298.73;;;2.45;80.41
77603;BME280;66771;52.434;17.056;2023-02-28T08:41:06;102299.52;;;3.67;78.95
77603;BME280;66771;52.434;17.056;2023-02-28T08:43:34;102291.88;;;4.43;72.08
77603;BME280;66771;52.434;17.056;2023-02-28T08:46:02;102295.04;;;4.78;75.17
77603;BME280;66771;52.434;17.056;2023-02-28T08:48:31;102292.34;;;4.59;64.29
77603;BME280;66771;52.434;17.056;2023-02-28T08:53:26;102286.77;;;4.47;68.77
77603;BME280;66771;52.434;17.056;2023-02-28T08:56:04;102294.58;;;4.76;67.79
77603;BME280;66771;52.434;17.056;2023-02-28T08:58:33;102295.68;;;4.61;68.77
77603;BME280;66771;52.434;17.056;2023-02-28T09:01:07;102295.23;;;4.43;69.60
77603;BME280;66771;52.434;17.056;2023-02-28T09:03:34;102294.45;;;3.80;63.91
77603;BME280;66771;52.434;17.056;2023-02-28T09:06:01;102297.45;;;3.05;63.97
77603;BME280;66771;52.434;17.056;2023-02-28T09:08:30;102295.12;;;2.49;67.01
77603;BME280;66771;52.434;17.056;2023-02-28T09:10:57;102291.73;;;2.17;65.96
77603;BME280;66771;52.434;17.056;2023-02-28T09:13:26;102290.02;;;2.13;63.91
77603;BME280;66771;52.434;17.056;2023-02-28T09:15:53;102290.17;;;2.75;68.41
77603;BME280;66771;52.434;17.056;2023-02-28T09:18:20;102289.04;;;3.67;64.79
77603;BME280;66771;52.434;17.056;2023-02-28T09:20:47;102288.61;;;3.54;64.10
77603;BME280;66771;52.434;17.056;2023-02-28T09:23:14;102290.15;;;2.96;65.70
77603;BME280;66771;52.434;17.056;2023-02-28T09:25:49;102293.11;;;2.52;67.15
77603;BME280;66771;52.434;17.056;2023-02-28T09:28:17;102291.48;;;2.11;66.38
77603;BME280;66771;52.434;17.056;2023-02-28T09:30:46;102291.91;;;1.82;65.09
77603;BME280;66771;52.434;17.056;2023-02-28T09:33:13;102292.30;;;1.68;66.90
77603;BME280;66771;52.434;17.056;2023-02-28T09:35:40;102294.15;;;1.50;64.65
77603;BME280;66771;52.434;17.056;2023-02-28T09:38:07;102295.62;;;1.31;64.59
77603;BME280;66771;52.434;17.056;2023-02-28T09:40:49;102305.02;;;1.16;65.48
77603;BME280;66771;52.434;17.056;2023-02-28T09:43:18;102307.00;;;1.13;67.30
77603;BME280;66771;52.434;17.056;2023-02-28T09:48:28;102307.73;;;1.11;67.79
77603;BME280;66771;52.434;17.056;2023-02-28T09:51:05;102308.55;;;1.01;65.38
77603;BME280;66771;52.434;17.056;2023-02-28T09:53:37;102310.44;;;0.90;65.62
77603;BME280;66771;52.434;17.056;2023-02-28T09:56:13;102312.02;;;0.94;67.50
77603;BME280;66771;52.434;17.056;2023-02-28T09:58:49;102314.56;;;1.04;67.52
77603;BME280;66771;52.434;17.056;2023-02-28T10:01:27;102317.97;;;1.15;65.65
77603;BME280;66771;52.434;17.056;2023-02-28T10:06:49;102318.75;;;1.24;66.11
77603;BME280;66771;52.434;17.056;2023-02-28T10:09:26;102311.83;;;1.25;65.85
77603;BME280;66771;52.434;17.056;2023-02-28T10:11:57;102315.29;;;1.32;67.43
77603;BME280;66771;52.434;17.056;2023-02-28T10:14:29;102312.30;;;1.45;68.01
77603;BME280;66771;52.434;17.056;2023-02-28T10:17:16;102308.75;;;1.59;68.64
77603;BME280;66771;52.434;17.056;2023-02-28T10:20:00;102305.80;;;1.80;68.08
77603;BME280;66771;52.434;17.056;2023-02-28T10:23:00;102299.89;;;1.96;64.21
77603;BME280;66771;52.434;17.056;2023-02-28T10:25:36;102295.31;;;2.04;65.49
77603;BME280;66771;52.434;17.056;2023-02-28T10:28:14;102293.96;;;2.11;66.02
77603;BME280;66771;52.434;17.056;2023-02-28T10:30:44;102297.77;;;2.17;65.68
77603;BME280;66771;52.434;17.056;2023-02-28T10:33:33;102293.17;;;2.15;65.79
77603;BME280;66771;52.434;17.056;2023-02-28T10:36:04;102294.54;;;2.20;66.92
77603;BME280;66771;52.434;17.056;2023-02-28T10:38:38;102295.66;;;2.26;64.48
77603;BME280;66771;52.434;17.056;2023-02-28T10:41:09;102292.23;;;2.40;64.74
77603;BME280;66771;52.434;17.056;2023-02-28T10:43:39;102287.14;;;2.77;60.17
77603;BME280;66771;52.434;17.056;2023-02-28T10:48:57;102278.40;;;2.97;61.07
77603;BME280;66771;52.434;17.056;2023-02-28T10:51:34;102274.48;;;2.98;63.16
77603;BME280;66771;52.434;17.056;2023-02-28T10:54:02;102271.98;;;2.99;62.72
77603;BME280;66771;52.434;17.056;2023-02-28T10:56:29;102271.57;;;2.92;62.18
77603;BME280;66771;52.434;17.056;2023-02-28T11:04:04;102270.48;;;3.36;64.69
77603;BME280;66771;52.434;17.056;2023-02-28T11:06:42;102265.00;;;3.83;60.64
77603;BME280;66771;52.434;17.056;2023-02-28T11:09:44;102260.39;;;3.66;61.56
77603;BME280;66771;52.434;17.056;2023-02-28T11:14:49;102263.48;;;3.24;62.04
77603;BME280;66771;52.434;17.056;2023-02-28T11:17:21;102261.48;;;3.16;58.76
77603;BME280;66771;52.434;17.056;2023-02-28T11:19:52;102260.35;;;3.28;61.20
77603;BME280;66771;52.434;17.056;2023-02-28T11:22:22;102264.85;;;3.67;57.83
77603;BME280;66771;52.434;17.056;2023-02-28T11:24:53;102263.92;;;3.84;57.79
77603;BME280;66771;52.434;17.056;2023-02-28T11:29:58;102261.09;;;3.90;56.66
77603;BME280;66771;52.434;17.056;2023-02-28T11:32:29;102254.27;;;3.93;57.81
77603;BME280;66771;52.434;17.056;2023-02-28T11:37:36;102254.80;;;3.77;55.61
77603;BME280;66771;52.434;17.056;2023-02-28T11:40:17;102250.08;;;3.67;53.30
77603;BME280;66771;52.434;17.056;2023-02-28T11:45:59;102246.76;;;3.64;53.02
77603;BME280;66771;52.434;17.056;2023-02-28T11:48:51;102241.14;;;4.33;53.52
77603;BME280;66771;52.434;17.056;2023-02-28T11:51:31;102238.13;;;4.67;54.55
77603;BME280;66771;52.434;17.056;2023-02-28T11:54:21;102238.38;;;4.84;55.78
77603;BME280;66771;52.434;17.056;2023-02-28T11:56:53;102230.13;;;5.04;53.79
77603;BME280;66771;52.434;17.056;2023-02-28T12:00:00;102228.09;;;5.07;48.59
77603;BME280;66771;52.434;17.056;2023-02-28T12:05:29;102219.96;;;5.28;48.73
77603;BME280;66771;52.434;17.056;2023-02-28T12:11:06;102211.77;;;5.39;53.33
77603;BME280;66771;52.434;17.056;2023-02-28T12:22:11;102209.42;;;6.29;49.47
77603;BME280;66771;52.434;17.056;2023-02-28T12:27:49;102196.77;;;7.16;45.46
77603;BME280;66771;52.434;17.056;2023-02-28T12:33:17;102193.61;;;6.90;50.91
77603;BME280;66771;52.434;17.056;2023-02-28T12:35:57;102192.98;;;6.74;50.28
77603;BME280;66771;52.434;17.056;2023-02-28T12:38:27;102189.34;;;6.95;45.29
77603;BME280;66771;52.434;17.056;2023-02-28T12:41:12;102185.81;;;7.44;48.52
77603;BME280;66771;52.434;17.056;2023-02-28T12:43:44;102186.14;;;7.41;49.32
77603;BME280;66771;52.434;17.056;2023-02-28T12:46:45;102183.64;;;6.89;44.27
77603;BME280;66771;52.434;17.056;2023-02-28T12:49:15;102179.39;;;6.39;42.62
77603;BME280;66771;52.434;17.056;2023-02-28T12:51:43;102177.42;;;5.97;45.26
77603;BME280;66771;52.434;17.056;2023-02-28T12:54:36;102175.51;;;5.79;47.13
77603;BME280;66771;52.434;17.056;2023-02-28T12:57:31;102178.13;;;5.58;47.80
77603;BME280;66771;52.434;17.056;2023-02-28T13:00:11;102173.75;;;5.28;47.37
77603;BME280;66771;52.434;17.056;2023-02-28T13:08:08;102175.34;;;4.55;51.42
77603;BME280;66771;52.434;17.056;2023-02-28T13:10:48;102173.16;;;4.37;51.90
77603;BME280;66771;52.434;17.056;2023-02-28T13:13:27;102171.39;;;4.23;51.80
77603;BME280;66771;52.434;17.056;2023-02-28T13:16:10;102165.77;;;4.13;51.46
77603;BME280;66771;52.434;17.056;2023-02-28T13:18:45;102165.15;;;4.03;51.49
77603;BME280;66771;52.434;17.056;2023-02-28T13:21:29;102167.71;;;3.93;52.80
77603;BME280;66771;52.434;17.056;2023-02-28T13:24:02;102166.34;;;3.90;52.91
77603;BME280;66771;52.434;17.056;2023-02-28T13:34:33;102155.05;;;4.34;54.20
77603;BME280;66771;52.434;17.056;2023-02-28T13:39:56;102147.31;;;4.10;54.24
77603;BME280;66771;52.434;17.056;2023-02-28T13:42:56;102142.25;;;4.07;54.43
77603;BME280;66771;52.434;17.056;2023-02-28T13:45:25;102139.08;;;4.05;53.80
77603;BME280;66771;52.434;17.056;2023-02-28T13:48:00;102137.04;;;4.02;52.72
77603;BME280;66771;52.434;17.056;2023-02-28T13:50:32;102136.77;;;3.98;52.80
77603;BME280;66771;52.434;17.056;2023-02-28T14:01:11;102128.56;;;4.32;53.24
77603;BME280;66771;52.434;17.056;2023-02-28T14:06:15;102124.44;;;4.27;54.62
77603;BME280;66771;52.434;17.056;2023-02-28T14:08:57;102124.14;;;4.24;53.22
77603;BME280;66771;52.434;17.056;2023-02-28T14:11:33;102124.67;;;4.11;54.26
77603;BME280;66771;52.434;17.056;2023-02-28T14:14:02;102121.19;;;4.02;53.87
77603;BME280;66771;52.434;17.056;2023-02-28T14:16:41;102121.79;;;3.99;54.38
77603;BME280;66771;52.434;17.056;2023-02-28T14:19:19;102112.79;;;4.03;53.94
77603;BME280;66771;52.434;17.056;2023-02-28T14:38:50;102102.18;;;3.58;52.76
77603;BME280;66771;52.434;17.056;2023-02-28T14:44:00;102105.35;;;3.38;51.60
77603;BME280;66771;52.434;17.056;2023-02-28T14:46:36;102100.03;;;3.29;52.72
77603;BME280;66771;52.434;17.056;2023-02-28T14:49:06;102101.94;;;3.24;52.62
77603;BME280;66771;52.434;17.056;2023-02-28T14:51:38;102106.84;;;3.20;52.78
77603;BME280;66771;52.434;17.056;2023-02-28T14:54:05;102110.10;;;3.18;50.69
77603;BME280;66771;52.434;17.056;2023-02-28T14:56:37;102107.44;;;3.17;52.54
77603;BME280;66771;52.434;17.056;2023-02-28T14:59:17;102111.02;;;3.16;53.18
77603;BME280;66771;52.434;17.056;2023-02-28T15:01:49;102109.13;;;3.14;53.42
77603;BME280;66771;52.434;17.056;2023-02-28T15:04:25;102108.11;;;3.11;53.77
77603;BME280;66771;52.434;17.056;2023-02-28T15:07:13;102102.52;;;3.07;54.29
77603;BME280;66771;52.434;17.056;2023-02-28T15:09:41;102098.55;;;3.02;54.37
77603;BME280;66771;52.434;17.056;2023-02-28T15:12:13;102092.83;;;2.95;54.15
77603;BME280;66771;52.434;17.056;2023-02-28T15:14:42;102092.11;;;2.87;54.46
77603;BME280;66771;52.434;17.056;2023-02-28T15:17:19;102091.12;;;2.76;51.97
77603;BME280;66771;52.434;17.056;2023-02-28T15:19:51;102088.25;;;2.68;52.92
77603;BME280;66771;52.434;17.056;2023-02-28T15:22:35;102084.52;;;2.61;53.70